LFPG 211130Z 34008KT 9999 OVC043 04/02 Q1038 NOSIG

ElémentsDécodage
LFPG Station météo située sur l'aérodrome de PARIS Charles-de-Gaulle
211130Z émis le 21 du mois à 11h30 UTC
34008KT vent du 340°, 08 noeuds
9999 visibilité horizontale supérieure à 10 Km
OVC043 couverture nuageuse totale (8/8) à 4300 pieds
04/02 température 04°C, point de rosée 02°C
 soit une humidité relative de 87%
Q1038 la pression au niveau de la mer (QNH) est de 1038 hPa
NOSIG Pas de changement significatif prévu au cours des deux heures suivant l'heure de l'observation